Time;durP1;ratioP1;P1;durP2;ratioP2;P2;SDS_P1;SDS_P2;PMS_P1;PMS_P2;Temp;Humidity;BMP_temperature;BMP_pressure;BME280_temperature;BME280_humidity;BME280_pressure;Samples;Min_cycle;Max_cycle;Signal;HPM_P1;HPM_P2
2023/04/09 00:01:48;;;;;;;22.20;15.90;;;6.00;99.90;;;;;;5055618;28;20082;-66
2023/04/09 00:04:14;;;;;;;22.92;16.25;;;6.00;99.90;;;;;;5055106;28;20116;-66
2023/04/09 00:06:40;;;;;;;21.45;15.48;;;6.00;99.90;;;;;;5055474;28;20466;-66
2023/04/09 00:09:05;;;;;;;23.90;16.80;;;6.00;99.90;;;;;;5055387;28;20029;-66
2023/04/09 00:11:31;;;;;;;22.38;16.88;;;6.00;99.90;;;;;;5055020;28;20029;-67
2023/04/09 00:13:57;;;;;;;21.65;16.38;;;6.00;99.90;;;;;;5055387;28;20020;-66
2023/04/09 00:16:23;;;;;;;22.77;15.95;;;6.00;99.90;;;;;;5055173;28;20112;-67
2023/04/09 00:18:49;;;;;;;20.60;16.35;;;6.00;99.90;;;;;;5055560;28;20119;-67
2023/04/09 00:21:15;;;;;;;20.70;15.75;;;6.00;99.90;;;;;;5054787;28;20025;-67
2023/04/09 00:23:41;;;;;;;22.30;17.00;;;6.00;99.90;;;;;;5055153;28;20021;-67
2023/04/09 00:26:07;;;;;;;20.45;15.38;;;6.00;99.90;;;;;;5055124;28;20389;-67
2023/04/09 00:28:33;;;;;;;22.42;15.90;;;6.00;99.90;;;;;;5054718;28;20033;-67
2023/04/09 00:30:59;;;;;;;22.35;16.38;;;6.00;99.90;;;;;;5055115;28;20036;-67
2023/04/09 00:33:25;;;;;;;21.98;15.98;;;6.00;99.90;;;;;;5054300;28;20027;-67
2023/04/09 00:35:51;;;;;;;22.95;15.35;;;6.00;99.90;;;;;;5054386;28;20039;-67
2023/04/09 00:38:16;;;;;;;21.38;15.82;;;6.00;99.90;;;;;;5053801;28;20021;-67
2023/04/09 00:40:42;;;;;;;21.13;15.15;;;5.90;99.90;;;;;;5054547;28;20029;-67
2023/04/09 00:43:08;;;;;;;22.20;15.60;;;5.90;99.90;;;;;;5054395;28;20056;-67
2023/04/09 00:45:34;;;;;;;20.20;15.25;;;5.90;99.90;;;;;;5054416;28;20037;-67
2023/04/09 00:47:59;;;;;;;19.98;15.02;;;5.90;99.90;;;;;;5054711;28;20462;-67
2023/04/09 00:50:25;;;;;;;19.60;14.93;;;5.90;99.90;;;;;;5053858;28;20096;-67
2023/04/09 00:52:51;;;;;;;19.65;14.73;;;5.90;99.90;;;;;;5054728;28;20100;-67
2023/04/09 00:55:17;;;;;;;21.20;15.32;;;5.90;99.90;;;;;;5053942;28;20025;-67
2023/04/09 00:57:43;;;;;;;21.00;15.60;;;5.90;99.90;;;;;;5054525;28;20044;-67
2023/04/09 01:00:11;;;;;;;21.08;14.82;;;5.90;99.90;;;;;;5054202;28;20021;-67
2023/04/09 01:02:37;;;;;;;19.02;14.52;;;5.90;99.90;;;;;;5054022;28;20033;-67
2023/04/09 01:05:03;;;;;;;18.92;13.65;;;5.90;99.90;;;;;;5054052;28;20045;-67
2023/04/09 01:07:53;;;;;;;16.95;13.20;;;5.90;99.90;;;;;;5054036;28;20067;-67
2023/04/09 01:11:05;;;;;;;18.13;13.25;;;5.90;99.90;;;;;;5053750;28;20414;-67
2023/04/09 01:13:45;;;;;;;16.80;12.57;;;5.90;99.90;;;;;;5034882;28;20037;-67
2023/04/09 01:16:13;;;;;;;14.20;11.52;;;5.90;99.90;;;;;;5054279;28;20029;-67
2023/04/09 01:18:41;;;;;;;17.48;13.45;;;5.90;99.90;;;;;;5053532;28;20028;-67
2023/04/09 01:21:13;;;;;;;16.00;12.07;;;5.90;99.90;;;;;;5053838;28;20043;-67
2023/04/09 01:23:45;;;;;;;15.88;11.00;;;5.90;99.90;;;;;;5053652;28;20480;-67
2023/04/09 01:27:02;;;;;;;12.10;9.95;;;5.90;99.90;;;;;;5054129;28;20040;-67
2023/04/09 01:29:32;;;;;;;12.57;9.43;;;5.90;99.90;;;;;;5035939;28;20041;-67
2023/04/09 01:32:00;;;;;;;12.43;9.48;;;5.80;99.90;;;;;;5053830;28;20049;-67
2023/04/09 01:34:28;;;;;;;13.73;10.35;;;5.80;99.90;;;;;;5053542;28;20531;-67
2023/04/09 01:36:57;;;;;;;14.32;10.95;;;5.80;99.90;;;;;;5053816;28;20029;-66
2023/04/09 01:39:23;;;;;;;14.60;11.30;;;5.80;99.90;;;;;;5053755;28;20024;-67
2023/04/09 01:41:50;;;;;;;15.75;11.55;;;5.80;99.90;;;;;;5052585;28;20025;-67
2023/04/09 01:44:16;;;;;;;15.55;12.20;;;5.80;99.90;;;;;;5053472;28;20105;-67
2023/04/09 01:46:43;;;;;;;16.08;11.98;;;5.80;99.90;;;;;;5053100;28;20025;-66
2023/04/09 01:49:09;;;;;;;16.55;12.43;;;5.80;99.90;;;;;;5052940;28;20433;-66
2023/04/09 01:51:36;;;;;;;17.48;12.68;;;5.80;99.90;;;;;;5052310;28;20025;-66
2023/04/09 01:54:02;;;;;;;17.52;12.10;;;5.80;99.90;;;;;;5052368;28;20078;-66
2023/04/09 01:56:47;;;;;;;16.45;12.45;;;5.80;99.90;;;;;;5052897;28;20082;-66
2023/04/09 01:59:13;;;;;;;16.23;11.93;;;5.80;99.90;;;;;;5053718;28;20063;-66
2023/04/09 02:01:48;;;;;;;15.43;11.98;;;5.80;99.90;;;;;;5052961;28;20579;-66
2023/04/09 02:04:23;;;;;;;16.40;11.82;;;5.80;99.90;;;;;;5053189;28;20040;-66
2023/04/09 02:06:54;;;;;;;13.98;11.07;;;5.80;99.90;;;;;;5053368;28;20021;-66
2023/04/09 02:09:22;;;;;;;15.60;11.70;;;5.70;99.90;;;;;;5052779;28;20031;-69
2023/04/09 02:11:49;;;;;;;15.50;11.27;;;5.70;99.90;;;;;;5053196;28;20036;-66
2023/04/09 02:14:17;;;;;;;17.17;12.45;;;5.70;99.90;;;;;;5053059;28;20056;-66
2023/04/09 02:16:44;;;;;;;16.13;12.10;;;5.70;99.90;;;;;;5052626;28;20025;-66
2023/04/09 02:19:10;;;;;;;18.60;13.27;;;5.70;99.90;;;;;;5053141;28;20465;-66
2023/04/09 02:21:36;;;;;;;21.63;14.45;;;5.70;99.90;;;;;;5052957;28;20036;-67
2023/04/09 02:24:01;;;;;;;17.48;13.98;;;5.70;99.90;;;;;;5052917;28;20029;-66
2023/04/09 02:26:27;;;;;;;19.17;13.77;;;5.70;99.90;;;;;;5052255;28;20057;-67
2023/04/09 02:28:52;;;;;;;18.08;14.00;;;5.70;99.90;;;;;;5052465;28;20033;-66
2023/04/09 02:31:18;;;;;;;18.48;13.50;;;5.70;99.90;;;;;;5052948;28;20024;-67
2023/04/09 02:33:44;;;;;;;18.42;13.77;;;5.70;99.90;;;;;;5052519;28;20029;-67
2023/04/09 02:36:12;;;;;;;18.02;13.38;;;5.60;99.90;;;;;;5052902;28;20033;-67
2023/04/09 02:38:41;;;;;;;21.75;14.35;;;5.70;99.90;;;;;;5052090;28;20474;-67
2023/04/09 02:41:07;;;;;;;16.75;12.50;;;5.60;99.90;;;;;;5052731;28;20075;-67
2023/04/09 02:43:33;;;;;;;17.35;14.20;;;5.60;99.90;;;;;;5051868;28;20091;-67
2023/04/09 02:45:59;;;;;;;18.63;13.63;;;5.60;99.90;;;;;;5053840;28;20041;-67
2023/04/09 02:48:24;;;;;;;16.65;13.05;;;5.50;99.90;;;;;;5052820;28;20111;-67
2023/04/09 02:50:50;;;;;;;18.23;13.75;;;5.50;99.90;;;;;;5052396;28;20029;-66
2023/04/09 02:53:16;;;;;;;19.15;13.82;;;5.50;99.90;;;;;;5052489;28;20108;-67
2023/04/09 02:55:41;;;;;;;19.13;14.65;;;5.40;99.90;;;;;;5052089;28;20043;-67
2023/04/09 02:58:07;;;;;;;19.20;13.85;;;5.40;99.90;;;;;;5052250;28;20358;-67
2023/04/09 03:00:32;;;;;;;21.13;14.82;;;5.40;99.90;;;;;;5051901;28;20029;-66
2023/04/09 03:02:58;;;;;;;19.35;14.57;;;5.40;99.90;;;;;;5056422;28;20021;-67
2023/04/09 03:05:24;;;;;;;19.67;14.25;;;5.40;99.90;;;;;;5055948;28;20029;-68
2023/04/09 03:07:50;;;;;;;20.50;14.48;;;5.40;99.90;;;;;;5056405;28;20040;-67
2023/04/09 03:10:16;;;;;;;18.40;13.77;;;5.40;99.90;;;;;;5056408;28;20115;-66
2023/04/09 03:12:43;;;;;;;19.17;14.02;;;5.40;99.90;;;;;;5056529;28;20108;-67
2023/04/09 03:15:09;;;;;;;18.55;13.38;;;5.40;99.90;;;;;;5056588;28;20048;-66
2023/04/09 03:17:35;;;;;;;19.27;13.57;;;5.40;99.90;;;;;;5055817;28;20483;-67
2023/04/09 03:20:01;;;;;;;19.88;14.38;;;5.40;99.90;;;;;;5056781;28;20024;-67
2023/04/09 03:22:26;;;;;;;19.15;13.60;;;5.40;99.90;;;;;;5056132;28;20461;-67
2023/04/09 03:24:52;;;;;;;17.88;14.02;;;5.40;99.90;;;;;;5056681;28;20083;-66
2023/04/09 03:27:17;;;;;;;18.48;13.82;;;5.40;99.90;;;;;;5056486;28;20021;-67
2023/04/09 03:29:43;;;;;;;22.23;14.60;;;5.40;99.90;;;;;;5055988;28;20075;-67
2023/04/09 03:32:09;;;;;;;19.73;14.10;;;5.40;99.90;;;;;;5056115;28;20018;-66
2023/04/09 03:34:35;;;;;;;20.25;14.68;;;5.40;99.90;;;;;;5055892;28;20374;-67
2023/04/09 03:37:00;;;;;;;19.02;13.70;;;5.40;99.90;;;;;;5056223;28;20090;-67
2023/04/09 03:39:29;;;;;;;18.50;14.07;;;5.40;99.90;;;;;;5055925;28;20032;-73
2023/04/09 03:41:56;;;;;;;22.17;15.32;;;5.40;99.90;;;;;;5056066;28;20032;-67
2023/04/09 03:44:22;;;;;;;20.02;13.70;;;5.40;99.90;;;;;;5056035;28;20179;-66
2023/04/09 03:46:48;;;;;;;20.63;14.55;;;5.40;99.90;;;;;;5055329;28;20112;-67
2023/04/09 03:49:13;;;;;;;21.30;15.07;;;5.40;99.90;;;;;;5056132;28;20120;-67
2023/04/09 03:51:39;;;;;;;19.92;14.75;;;5.40;99.90;;;;;;5055677;28;20032;-67
2023/04/09 03:54:05;;;;;;;18.83;14.30;;;5.40;99.90;;;;;;5055975;28;20410;-66
2023/04/09 03:56:30;;;;;;;20.10;14.70;;;5.40;99.90;;;;;;5055554;28;20454;-67
2023/04/09 03:58:56;;;;;;;21.60;14.73;;;5.40;99.90;;;;;;5055592;28;20047;-67
2023/04/09 04:01:21;;;;;;;19.90;14.55;;;5.40;99.90;;;;;;5055841;28;20129;-67
2023/04/09 04:03:47;;;;;;;20.92;14.93;;;5.40;99.90;;;;;;5055131;28;20025;-67
2023/04/09 04:06:13;;;;;;;19.73;14.43;;;5.40;99.90;;;;;;5054361;28;20062;-67
2023/04/09 04:08:38;;;;;;;21.25;15.18;;;5.40;99.90;;;;;;5055341;28;20381;-67
2023/04/09 04:11:04;;;;;;;19.95;14.43;;;5.50;99.90;;;;;;5055683;28;20071;-67
2023/04/09 04:13:30;;;;;;;19.40;14.82;;;5.50;99.90;;;;;;5054093;28;20082;-67
2023/04/09 04:15:56;;;;;;;20.70;14.95;;;5.40;99.90;;;;;;5055295;28;20032;-66
2023/04/09 04:18:21;;;;;;;20.60;15.10;;;5.50;99.90;;;;;;5055556;28;20028;-66
2023/04/09 04:20:47;;;;;;;19.85;15.15;;;5.50;99.90;;;;;;5055070;28;20017;-66
2023/04/09 04:23:12;;;;;;;19.73;14.63;;;5.50;99.90;;;;;;5057087;28;20082;-67
2023/04/09 04:25:41;;;;;;;21.95;16.38;;;5.50;99.90;;;;;;5055352;28;20462;-67
2023/04/09 04:28:07;;;;;;;21.33;14.90;;;5.50;99.90;;;;;;5054811;28;20112;-67
2023/04/09 04:30:33;;;;;;;21.63;15.48;;;5.50;99.90;;;;;;5054924;28;20449;-67
2023/04/09 04:32:59;;;;;;;21.70;15.77;;;5.50;99.90;;;;;;5054905;28;20025;-67
2023/04/09 04:35:24;;;;;;;19.73;15.23;;;5.50;99.90;;;;;;5055171;28;20087;-66
2023/04/09 04:37:50;;;;;;;19.92;14.73;;;5.60;99.90;;;;;;5054488;28;20029;-67
2023/04/09 04:40:16;;;;;;;21.38;15.38;;;5.50;99.90;;;;;;5053548;28;20384;-66
2023/04/09 04:42:41;;;;;;;21.75;14.88;;;5.60;99.90;;;;;;5054690;28;20036;-67
2023/04/09 04:45:08;;;;;;;22.65;15.75;;;5.60;99.90;;;;;;5055028;28;20053;-67
2023/04/09 04:47:33;;;;;;;21.30;15.02;;;5.60;99.90;;;;;;5054550;28;20037;-67
2023/04/09 04:50:00;;;;;;;21.23;15.85;;;5.60;99.90;;;;;;5054935;28;20355;-66
2023/04/09 04:52:25;;;;;;;20.13;14.52;;;5.60;99.90;;;;;;5054499;28;20078;-66
2023/04/09 04:54:51;;;;;;;21.67;15.43;;;5.60;99.90;;;;;;5054171;28;20108;-66
2023/04/09 04:57:17;;;;;;;21.98;15.18;;;5.60;99.90;;;;;;5054966;28;20377;-67
2023/04/09 04:59:42;;;;;;;21.85;15.98;;;5.60;99.90;;;;;;5054059;28;20388;-66
2023/04/09 05:02:08;;;;;;;20.88;15.45;;;5.60;99.90;;;;;;5054807;28;20028;-66
2023/04/09 05:04:34;;;;;;;19.40;14.63;;;5.60;99.90;;;;;;5054266;28;20052;-66
2023/04/09 05:07:00;;;;;;;19.92;14.95;;;5.60;99.90;;;;;;5054559;28;20025;-66
2023/04/09 05:09:26;;;;;;;21.15;16.08;;;5.60;99.90;;;;;;5053383;28;20453;-66
2023/04/09 05:11:51;;;;;;;18.98;15.10;;;5.60;99.90;;;;;;5053877;28;20025;-65
2023/04/09 05:14:17;;;;;;;20.27;15.05;;;5.60;99.90;;;;;;5054444;28;20048;-66
2023/04/09 05:16:43;;;;;;;20.63;15.32;;;5.60;99.90;;;;;;5054014;28;20120;-67
2023/04/09 05:19:09;;;;;;;22.13;15.65;;;5.60;99.90;;;;;;5054433;28;20087;-66
2023/04/09 05:21:34;;;;;;;21.08;15.13;;;5.70;99.90;;;;;;5053948;28;20398;-67
2023/04/09 05:24:00;;;;;;;20.63;15.00;;;5.70;99.90;;;;;;5053789;28;20029;-67
2023/04/09 05:26:26;;;;;;;21.15;15.38;;;5.60;99.90;;;;;;5054150;28;20044;-66
2023/04/09 05:28:52;;;;;;;20.40;14.93;;;5.70;99.90;;;;;;5053854;28;20029;-67
2023/04/09 05:31:17;;;;;;;20.27;14.90;;;5.60;99.90;;;;;;5054336;28;20021;-66
2023/04/09 05:33:43;;;;;;;19.45;14.07;;;5.70;99.90;;;;;;5053639;28;20024;-67
2023/04/09 05:36:14;;;;;;;21.05;15.40;;;5.70;99.90;;;;;;5054201;28;20488;-67
2023/04/09 05:38:40;;;;;;;;;;;5.70;99.90;;;;;;5054120;28;20025;-66
2023/04/09 05:41:05;;;;;;;22.15;15.10;;;5.60;99.90;;;;;;5053566;28;19931;-66
2023/04/09 05:43:32;;;;;;;21.48;15.35;;;5.70;99.90;;;;;;5053857;28;20049;-66
2023/04/09 05:45:57;;;;;;;21.17;14.77;;;5.70;99.90;;;;;;5053343;28;20063;-66
2023/04/09 05:48:23;;;;;;;19.45;14.10;;;5.70;99.90;;;;;;5053891;28;20505;-66
2023/04/09 05:50:51;;;;;;;19.98;14.70;;;5.70;99.90;;;;;;5053663;28;20021;-66
2023/04/09 05:53:18;;;;;;;23.20;16.10;;;5.70;99.90;;;;;;5053691;28;20358;-65
2023/04/09 05:55:44;;;;;;;20.70;15.40;;;5.80;99.90;;;;;;5053838;28;20040;-66
2023/04/09 05:58:09;;;;;;;23.10;16.40;;;5.70;99.90;;;;;;5053655;28;20033;-66
2023/04/09 06:00:35;;;;;;;21.92;16.08;;;5.80;99.90;;;;;;5053524;28;20025;-66
2023/04/09 06:03:01;;;;;;;22.52;15.68;;;5.80;99.90;;;;;;5053707;28;20112;-67
2023/04/09 06:05:27;;;;;;;21.98;16.45;;;5.80;99.90;;;;;;5054040;28;20033;-66
2023/04/09 06:07:52;;;;;;;22.25;16.70;;;5.80;99.90;;;;;;5053104;28;20025;-67
2023/04/09 06:10:18;;;;;;;22.83;16.00;;;5.90;99.90;;;;;;5058009;28;20025;-66
2023/04/09 06:12:44;;;;;;;21.42;15.63;;;5.90;99.90;;;;;;5057812;28;20020;-67
2023/04/09 06:15:10;;;;;;;21.08;14.95;;;5.90;99.90;;;;;;5053541;28;20037;-67
2023/04/09 06:17:36;;;;;;;22.75;15.98;;;6.00;99.90;;;;;;5053313;28;20064;-67
2023/04/09 06:20:01;;;;;;;24.35;17.48;;;6.00;99.90;;;;;;5051673;28;20084;-67
2023/04/09 06:22:27;;;;;;;24.35;16.55;;;6.00;99.90;;;;;;5053292;28;20458;-67
2023/04/09 06:24:53;;;;;;;20.10;15.63;;;6.00;99.90;;;;;;5052643;28;20389;-67
2023/04/09 06:27:20;;;;;;;21.38;14.90;;;6.10;99.90;;;;;;5051662;28;20040;-67
2023/04/09 06:29:46;;;;;;;21.75;15.55;;;6.10;99.90;;;;;;5052362;28;20458;-67
2023/04/09 06:32:12;;;;;;;22.63;15.85;;;6.10;99.90;;;;;;5052883;28;20025;-66
2023/04/09 06:34:37;;;;;;;22.85;16.02;;;6.10;99.90;;;;;;5052839;28;20029;-66
2023/04/09 06:37:03;;;;;;;23.45;15.40;;;6.10;99.90;;;;;;5051450;28;20033;-66
2023/04/09 06:39:29;;;;;;;22.52;17.10;;;6.10;99.90;;;;;;5052742;28;20398;-67
2023/04/09 06:41:54;;;;;;;22.15;16.15;;;6.20;99.90;;;;;;5052212;28;20462;-66
2023/04/09 06:44:20;;;;;;;22.80;16.35;;;6.20;99.90;;;;;;5052532;28;20473;-65
2023/04/09 06:46:46;;;;;;;23.25;15.38;;;6.20;99.90;;;;;;5052431;28;20033;-66
2023/04/09 06:49:12;;;;;;;23.90;16.85;;;6.20;99.90;;;;;;5053056;28;20484;-66
2023/04/09 06:51:37;;;;;;;20.98;16.88;;;6.20;99.90;;;;;;5052537;28;20057;-66
2023/04/09 06:54:03;;;;;;;24.48;17.63;;;6.30;99.90;;;;;;5052373;28;20063;-66
2023/04/09 06:56:28;;;;;;;26.38;19.20;;;6.30;99.90;;;;;;5052600;28;20104;-66
2023/04/09 06:58:54;;;;;;;26.15;18.38;;;6.30;99.90;;;;;;5052625;28;20021;-66
2023/04/09 07:01:20;;;;;;;29.70;19.42;;;6.40;99.90;;;;;;5054017;28;20027;-66
2023/04/09 07:03:45;;;;;;;26.52;19.30;;;6.40;99.90;;;;;;5052708;28;20035;-66
2023/04/09 07:06:11;;;;;;;27.80;19.52;;;6.50;99.90;;;;;;5053367;28;20379;-66
2023/04/09 07:08:37;;;;;;;28.88;20.15;;;6.60;99.90;;;;;;5053146;28;20454;-66
2023/04/09 07:11:02;;;;;;;30.33;20.77;;;6.60;99.90;;;;;;5052325;28;20057;-66
2023/04/09 07:13:28;;;;;;;31.00;22.10;;;6.70;99.90;;;;;;5052648;28;20025;-67
2023/04/09 07:15:54;;;;;;;33.40;23.90;;;6.70;99.90;;;;;;5052194;28;20037;-66
2023/04/09 07:18:20;;;;;;;33.83;23.58;;;6.80;99.90;;;;;;5052482;28;20446;-66
2023/04/09 07:20:45;;;;;;;31.73;22.20;;;6.80;99.90;;;;;;5052174;28;20031;-67
2023/04/09 07:23:11;;;;;;;33.50;23.35;;;6.90;99.90;;;;;;5052353;28;20449;-66
2023/04/09 07:25:36;;;;;;;33.35;23.23;;;6.90;99.90;;;;;;5052530;28;20112;-66
2023/04/09 07:28:03;;;;;;;33.53;23.08;;;6.90;99.90;;;;;;5051782;28;20033;-66
2023/04/09 07:30:28;;;;;;;30.10;18.27;;;7.00;99.90;;;;;;5052544;28;20036;-66
2023/04/09 07:32:54;;;;;;;25.05;18.33;;;7.00;99.90;;;;;;5050750;28;20385;-66
2023/04/09 07:35:20;;;;;;;28.77;18.73;;;7.10;99.90;;;;;;5052384;28;20373;-66
2023/04/09 07:37:46;;;;;;;29.35;20.25;;;7.10;99.90;;;;;;5051896;28;20047;-66
2023/04/09 07:40:12;;;;;;;27.92;20.05;;;7.10;99.90;;;;;;5052542;28;20029;-66
2023/04/09 07:42:38;;;;;;;29.35;20.58;;;7.10;99.90;;;;;;5052401;28;20021;-66
2023/04/09 07:45:05;;;;;;;31.30;21.73;;;7.10;99.90;;;;;;5051514;28;20140;-66
2023/04/09 07:47:31;;;;;;;36.95;24.25;;;7.10;99.90;;;;;;5053334;28;20037;-66
2023/04/09 07:49:57;;;;;;;36.58;24.85;;;7.20;99.90;;;;;;5055687;28;20167;-67
2023/04/09 07:52:22;;;;;;;35.45;24.17;;;7.20;99.90;;;;;;5055524;28;20112;-66
2023/04/09 07:54:48;;;;;;;39.35;25.55;;;7.10;99.90;;;;;;5054353;28;20029;-67
2023/04/09 07:57:14;;;;;;;37.67;24.77;;;7.10;99.90;;;;;;5056265;28;20420;-65
2023/04/09 07:59:39;;;;;;;37.60;25.85;;;7.20;99.90;;;;;;5055660;28;20025;-66
2023/04/09 08:02:06;;;;;;;39.75;26.17;;;7.20;99.90;;;;;;5055693;28;20032;-66
2023/04/09 08:04:31;;;;;;;42.05;27.05;;;7.20;99.90;;;;;;5054668;28;20044;-65
2023/04/09 08:06:57;;;;;;;43.00;26.95;;;7.30;99.90;;;;;;5055780;28;20096;-67
2023/04/09 08:09:23;;;;;;;41.05;26.52;;;7.30;99.90;;;;;;5056173;28;20112;-67
2023/04/09 08:11:49;;;;;;;38.92;27.60;;;7.40;99.90;;;;;;5055674;28;20519;-67
2023/04/09 08:14:15;;;;;;;41.10;27.55;;;7.50;99.90;;;;;;5055954;28;20108;-67
2023/04/09 08:16:48;;;;;;;43.13;28.58;;;7.50;99.90;;;;;;5055919;28;20033;-67
2023/04/09 08:19:18;;;;;;;39.20;26.70;;;7.60;99.90;;;;;;5055572;28;20025;-67
2023/04/09 08:21:47;;;;;;;40.08;27.73;;;7.60;99.90;;;;;;5055857;28;20029;-66
2023/04/09 08:24:13;;;;;;;40.03;28.60;;;7.70;99.90;;;;;;5055478;28;20032;-66
2023/04/09 08:26:40;;;;;;;42.38;27.67;;;7.70;99.90;;;;;;5055593;28;20040;-67
2023/04/09 08:29:07;;;;;;;42.15;28.25;;;7.70;99.90;;;;;;5054911;28;20025;-67
2023/04/09 08:31:33;;;;;;;42.72;28.00;;;7.80;99.90;;;;;;5055317;28;20379;-67
2023/04/09 08:33:59;;;;;;;41.97;28.33;;;7.80;99.90;;;;;;5054840;28;20025;-66
2023/04/09 08:36:25;;;;;;;42.47;28.65;;;7.80;99.90;;;;;;5055416;28;20025;-66
2023/04/09 08:38:51;;;;;;;44.60;28.17;;;7.90;99.90;;;;;;5053009;28;20025;-66
2023/04/09 08:41:23;;;;;;;42.22;27.40;;;8.00;99.90;;;;;;5055297;28;20021;-66
2023/04/09 08:43:50;;;;;;;42.80;28.80;;;8.10;99.90;;;;;;5054376;28;20072;-68
2023/04/09 08:46:17;;;;;;;40.55;26.33;;;8.30;99.90;;;;;;5055057;28;20099;-67
2023/04/09 08:48:47;;;;;;;30.88;22.20;;;8.60;99.90;;;;;;5054993;28;20078;-65
2023/04/09 08:51:19;;;;;;;33.15;22.77;;;8.70;99.90;;;;;;5054173;28;20044;-66
2023/04/09 08:53:52;;;;;;;32.38;22.20;;;8.90;99.90;;;;;;5055354;28;20107;-66
2023/04/09 08:56:18;;;;;;;29.80;20.70;;;9.10;99.90;;;;;;5056632;28;20362;-66
2023/04/09 08:58:45;;;;;;;23.45;16.67;;;9.20;99.90;;;;;;5055733;28;20432;-67
2023/04/09 09:01:37;;;;;;;29.23;20.55;;;9.30;99.90;;;;;;5054348;28;20029;-67
2023/04/09 09:04:05;;;;;;;27.95;21.33;;;9.30;99.90;;;;;;5052658;28;20037;-67
2023/04/09 09:06:33;;;;;;;25.27;17.00;;;9.30;99.90;;;;;;5054730;28;20041;-66
2023/04/09 09:09:00;;;;;;;28.13;18.45;;;9.30;99.90;;;;;;5054184;28;20500;-66
2023/04/09 09:11:27;;;;;;;24.92;18.65;;;9.20;98.60;;;;;;5054700;28;20057;-65
2023/04/09 09:14:02;;;;;;;23.42;17.60;;;9.20;98.90;;;;;;5054463;28;20029;-67
2023/04/09 09:16:28;;;;;;;23.15;16.77;;;9.20;98.90;;;;;;5054139;28;20378;-67
2023/04/09 09:18:55;;;;;;;25.67;18.45;;;9.30;99.00;;;;;;5054044;28;20417;-66
2023/04/09 09:21:21;;;;;;;22.38;16.70;;;9.30;99.40;;;;;;5054621;28;20037;-66
2023/04/09 09:23:49;;;;;;;25.13;17.20;;;9.30;98.70;;;;;;5054299;28;20477;-66
2023/04/09 09:26:26;;;;;;;24.50;16.10;;;9.30;98.10;;;;;;5053706;28;20032;-67
2023/04/09 09:28:52;;;;;;;19.45;14.93;;;9.50;97.80;;;;;;5053882;28;20028;-71
2023/04/09 09:31:20;;;;;;;19.52;14.70;;;9.50;97.70;;;;;;5054198;28;20033;-67
2023/04/09 09:33:47;;;;;;;21.70;15.93;;;9.70;97.30;;;;;;5054150;28;20032;-67
2023/04/09 09:36:13;;;;;;;19.45;14.45;;;9.70;96.60;;;;;;5053650;28;20043;-66
2023/04/09 09:38:52;;;;;;;21.20;15.40;;;9.80;96.70;;;;;;5053730;28;20029;-67
2023/04/09 09:41:19;;;;;;;19.17;14.43;;;9.80;95.40;;;;;;5053957;28;20092;-66
2023/04/09 09:43:45;;;;;;;19.60;14.20;;;9.90;94.30;;;;;;5053875;28;20044;-66
2023/04/09 09:46:11;;;;;;;16.13;12.32;;;9.90;95.10;;;;;;5053280;28;20044;-66
2023/04/09 09:48:38;;;;;;;17.42;12.77;;;10.00;94.00;;;;;;5053377;28;20381;-66
2023/04/09 09:51:08;;;;;;;18.20;13.73;;;10.00;92.50;;;;;;5053617;28;20044;-66
2023/04/09 09:53:36;;;;;;;18.80;13.10;;;10.00;92.60;;;;;;5053751;28;20037;-66
2023/04/09 09:56:04;;;;;;;18.92;13.25;;;10.10;92.30;;;;;;5053256;28;20079;-66
2023/04/09 09:58:40;;;;;;;18.17;13.50;;;10.10;92.60;;;;;;5053513;28;20028;-66
2023/04/09 10:01:12;;;;;;;19.40;13.70;;;10.20;92.60;;;;;;5053232;28;20033;-67
2023/04/09 10:03:39;;;;;;;20.83;14.55;;;10.20;92.50;;;;;;5053597;28;20027;-66
2023/04/09 10:06:08;;;;;;;20.30;14.63;;;10.30;92.40;;;;;;5052616;28;20465;-67
2023/04/09 10:08:36;;;;;;;17.13;12.95;;;10.40;92.70;;;;;;5053575;28;20044;-66
2023/04/09 10:11:03;;;;;;;15.70;12.20;;;10.40;92.40;;;;;;5052021;28;20028;-66
2023/04/09 10:13:34;;;;;;;17.17;12.68;;;10.50;91.60;;;;;;5053186;28;20025;-66
2023/04/09 10:16:01;;;;;;;16.30;12.82;;;10.60;91.20;;;;;;5052805;28;20031;-66
2023/04/09 10:18:28;;;;;;;20.55;13.10;;;10.70;91.00;;;;;;5053415;28;20044;-66
2023/04/09 10:21:11;;;;;;;19.42;14.98;;;10.70;90.00;;;;;;5053183;28;20115;-66
2023/04/09 10:23:39;;;;;;;18.55;14.43;;;10.70;89.70;;;;;;5053248;28;20040;-66
2023/04/09 10:26:05;;;;;;;20.73;14.52;;;10.70;87.80;;;;;;5052395;28;20057;-66
2023/04/09 10:28:31;;;;;;;19.27;14.63;;;10.70;88.70;;;;;;5052795;28;20068;-66
2023/04/09 10:30:58;;;;;;;22.40;14.52;;;10.70;89.60;;;;;;5052382;28;20032;-67
2023/04/09 10:33:26;;;;;;;24.30;15.43;;;10.70;86.30;;;;;;5051701;28;20511;-66
2023/04/09 10:35:54;;;;;;;20.25;14.85;;;10.70;87.60;;;;;;5052498;28;20033;-65
2023/04/09 10:38:40;;;;;;;22.77;15.50;;;10.70;87.40;;;;;;5052501;28;20029;-66
2023/04/09 10:41:22;;;;;;;20.95;14.98;;;10.80;87.40;;;;;;5051318;28;20370;-65
2023/04/09 10:43:48;;;;;;;21.48;15.75;;;10.90;87.90;;;;;;5051510;28;20501;-65
2023/04/09 10:46:26;;;;;;;23.05;16.70;;;10.90;86.50;;;;;;5052375;28;20043;-66
2023/04/09 10:49:15;;;;;;;23.55;17.10;;;11.00;86.40;;;;;;5052775;28;20032;-67
2023/04/09 10:51:46;;;;;;;25.92;15.95;;;11.10;87.00;;;;;;5053096;28;20381;-67
2023/04/09 10:54:33;;;;;;;23.63;16.77;;;11.20;86.30;;;;;;5052412;28;20029;-67
2023/04/09 10:57:12;;;;;;;24.13;17.02;;;11.30;84.20;;;;;;5051451;28;20025;-67
2023/04/09 10:59:40;;;;;;;25.40;17.63;;;11.30;83.10;;;;;;5052738;28;20060;-67
2023/04/09 11:02:08;;;;;;;25.77;18.10;;;11.30;82.70;;;;;;5052340;28;20033;-67
2023/04/09 11:05:18;;;;;;;25.00;17.50;;;11.30;82.70;;;;;;5052526;28;20036;-67
2023/04/09 11:07:57;;;;;;;24.58;17.30;;;11.30;82.70;;;;;;5047640;28;20045;-66
2023/04/09 11:10:22;;;;;;;21.65;16.02;;;11.20;81.90;;;;;;5053726;28;20108;-65
2023/04/09 11:12:48;;;;;;;19.88;13.85;;;11.20;82.10;;;;;;5056866;28;20056;-67
2023/04/09 11:15:18;;;;;;;19.55;14.20;;;11.20;80.10;;;;;;5057188;28;20033;-67
2023/04/09 11:17:46;;;;;;;19.60;14.00;;;11.20;78.30;;;;;;5055774;28;20017;-66
2023/04/09 11:20:13;;;;;;;17.02;13.23;;;11.20;79.10;;;;;;5052573;28;20025;-66
2023/04/09 11:22:38;;;;;;;20.80;14.65;;;11.10;76.40;;;;;;5054356;28;20162;-66
2023/04/09 11:25:04;;;;;;;22.35;15.23;;;11.10;77.30;;;;;;5055947;28;20145;-66
2023/04/09 11:27:35;;;;;;;20.90;14.98;;;11.10;78.90;;;;;;5056403;28;20029;-66
2023/04/09 11:30:01;;;;;;;24.20;17.27;;;11.00;78.60;;;;;;5054952;28;20355;-67
2023/04/09 11:32:30;;;;;;;23.42;16.95;;;11.00;79.90;;;;;;5056105;28;20086;-66
2023/04/09 11:34:56;;;;;;;26.83;18.55;;;11.00;80.90;;;;;;5056384;28;20024;-66
2023/04/09 11:37:22;;;;;;;27.95;19.83;;;11.10;81.40;;;;;;5055910;28;20373;-67
2023/04/09 11:39:53;;;;;;;28.38;19.30;;;11.10;81.90;;;;;;5056060;28;20100;-66
2023/04/09 11:42:19;;;;;;;27.47;18.37;;;11.10;81.90;;;;;;5055959;28;20108;-66
2023/04/09 11:44:45;;;;;;;26.10;18.67;;;11.10;82.70;;;;;;5056211;28;20048;-66
2023/04/09 11:47:12;;;;;;;25.67;17.02;;;11.10;82.40;;;;;;5055861;28;20569;-66
2023/04/09 11:49:38;;;;;;;20.00;13.82;;;11.10;82.90;;;;;;5056106;28;20104;-66
2023/04/09 11:52:04;;;;;;;20.83;14.15;;;11.10;82.90;;;;;;5055601;28;20116;-67
2023/04/09 11:54:33;;;;;;;21.23;15.25;;;11.10;82.60;;;;;;5055936;28;20064;-66
2023/04/09 11:57:00;;;;;;;22.92;15.85;;;11.10;83.10;;;;;;5055818;28;20025;-65
2023/04/09 11:59:26;;;;;;;24.88;18.25;;;11.20;84.10;;;;;;5055454;28;20107;-66
2023/04/09 12:01:52;;;;;;;28.38;19.38;;;11.30;83.70;;;;;;5055933;28;20032;-66
2023/04/09 12:04:20;;;;;;;24.33;17.05;;;11.40;84.60;;;;;;5055385;28;20033;-66
2023/04/09 12:06:47;;;;;;;24.52;17.52;;;11.40;83.20;;;;;;5055771;28;20033;-66
2023/04/09 12:09:13;;;;;;;22.20;16.65;;;11.50;81.10;;;;;;5055380;28;20033;-66
2023/04/09 12:11:41;;;;;;;24.63;17.35;;;11.60;81.50;;;;;;5055344;28;20548;-67
2023/04/09 12:14:12;;;;;;;20.50;14.90;;;11.60;80.80;;;;;;5055239;28;20021;-66
2023/04/09 12:16:40;;;;;;;20.33;15.52;;;11.60;78.20;;;;;;5056241;28;20062;-66
2023/04/09 12:19:07;;;;;;;23.20;15.38;;;11.60;76.60;;;;;;5056808;28;20117;-67
2023/04/09 12:21:48;;;;;;;20.52;14.50;;;11.60;77.40;;;;;;5057804;28;20483;-68
2023/04/09 12:24:18;;;;;;;20.90;14.93;;;11.60;76.70;;;;;;5055054;28;20108;-66
2023/04/09 12:26:47;;;;;;;23.42;15.88;;;11.60;75.80;;;;;;5055306;28;20068;-66
2023/04/09 12:29:14;;;;;;;21.50;15.20;;;11.60;73.90;;;;;;5054944;28;20039;-66
2023/04/09 12:31:40;;;;;;;22.35;15.60;;;11.50;73.50;;;;;;5054988;28;20025;-66
2023/04/09 12:34:07;;;;;;;23.67;15.88;;;11.50;74.70;;;;;;5053813;28;20025;-67
2023/04/09 12:36:32;;;;;;;24.15;15.95;;;11.50;73.50;;;;;;5054892;28;20446;-67
2023/04/09 12:38:58;;;;;;;25.38;16.95;;;11.40;73.10;;;;;;5054901;28;20063;-67